Terminal Aerodrome Forecast
Issued by NWS

Home | Current Version | Previous Version | Text Only | Print | Product List | Glossary On
Versions: 1 2 3 4 5 6 7 8 9 10 11 12 13 14 15 16 17
791
FTUS45 KTFX 180527
TAFCTB
TAF
KCTB 180527Z 1806/1906 01015KT 3/4SM -SN BLSN OVC010
     FM180900 01014G22KT 3/4SM -SN BLSN OVC010
     FM182200 01014G23KT 1 1/2SM -SN BLSN BKN008 OVC015
     FM190200 36010KT 4SM -SN BR OVC020=

USA.gov is the U.S. government's official web portal to all federal, state and local government web resources and services.